createdAt,value
2023-02-04T00:00:09.622Z,22.15
2023-02-04T00:02:38.279Z,19.80
2023-02-04T00:05:05.229Z,20.02
2023-02-04T00:07:31.878Z,19.63
2023-02-04T00:09:59.941Z,21.08
2023-02-04T00:12:26.927Z,20.73
2023-02-04T00:14:53.599Z,21.40
2023-02-04T00:17:20.446Z,21.75
2023-02-04T00:19:47.188Z,17.65
2023-02-04T00:22:13.874Z,20.00
2023-02-04T00:24:43.074Z,22.60
2023-02-04T00:27:09.806Z,25.38
2023-02-04T00:29:36.540Z,22.80
2023-02-04T00:32:05.908Z,32.15
2023-02-04T00:34:32.777Z,27.10
2023-02-04T00:36:59.696Z,29.70
2023-02-04T00:39:26.439Z,25.83
2023-02-04T00:41:53.201Z,24.70
2023-02-04T00:44:19.885Z,28.02
2023-02-04T00:46:49.227Z,23.30
2023-02-04T00:49:15.936Z,24.40
2023-02-04T00:51:46.454Z,22.85
2023-02-04T00:56:41.911Z,21.35
2023-02-04T00:59:08.752Z,26.42
2023-02-04T01:01:35.838Z,29.23
2023-02-04T01:04:02.702Z,25.67
2023-02-04T01:06:29.435Z,29.63
2023-02-04T01:08:56.150Z,24.85
2023-02-04T01:11:22.879Z,24.58
2023-02-04T01:13:50.065Z,25.08
2023-02-04T01:16:16.774Z,24.33
2023-02-04T01:18:43.579Z,27.80
2023-02-04T01:21:10.272Z,28.10
2023-02-04T01:23:37.533Z,25.25
2023-02-04T01:26:04.547Z,25.33
2023-02-04T01:28:31.385Z,24.02
2023-02-04T01:30:58.213Z,25.52
2023-02-04T01:33:25.077Z,24.45
2023-02-04T01:35:51.737Z,23.70
2023-02-04T01:38:18.487Z,24.85
2023-02-04T01:40:45.836Z,25.25
2023-02-04T01:43:12.920Z,25.00
2023-02-04T01:45:39.973Z,21.85
2023-02-04T01:48:08.057Z,22.27
2023-02-04T01:50:35.525Z,20.08
2023-02-04T01:53:02.454Z,21.98
2023-02-04T01:55:31.842Z,26.00
2023-02-04T01:57:59.183Z,23.70
2023-02-04T02:00:34.020Z,16.40
2023-02-04T02:03:01.010Z,13.45
2023-02-04T02:05:33.182Z,13.65
2023-02-04T02:08:03.185Z,13.02
2023-02-04T02:10:31.074Z,11.30
2023-02-04T02:12:58.596Z,8.63
2023-02-04T02:15:25.643Z,9.30
2023-02-04T02:17:53.686Z,10.90
2023-02-04T02:20:22.961Z,11.65
2023-02-04T02:23:01.789Z,13.13
2023-02-04T02:25:28.918Z,15.60
2023-02-04T02:27:56.936Z,17.55
2023-02-04T02:30:23.888Z,21.83
2023-02-04T02:32:52.247Z,25.23
2023-02-04T02:35:19.024Z,26.75
2023-02-04T02:37:45.876Z,24.33
2023-02-04T02:40:14.500Z,31.58
2023-02-04T02:42:43.448Z,31.30
2023-02-04T02:45:36.457Z,33.67
2023-02-04T02:48:03.377Z,32.00
2023-02-04T02:50:32.361Z,35.38
2023-02-04T02:52:59.557Z,33.75
2023-02-04T02:55:28.686Z,33.33
2023-02-04T02:57:56.978Z,31.63
2023-02-04T03:00:30.221Z,30.75
2023-02-04T03:03:08.812Z,26.25
2023-02-04T03:05:41.080Z,27.60
2023-02-04T03:08:09.010Z,27.42
2023-02-04T03:10:36.749Z,24.05
2023-02-04T03:13:04.695Z,26.08
2023-02-04T03:15:32.643Z,26.00
2023-02-04T03:18:00.548Z,25.65
2023-02-04T03:20:30.261Z,25.40
2023-02-04T03:22:57.906Z,24.00
2023-02-04T03:25:26.560Z,23.73
2023-02-04T03:27:54.700Z,19.77
2023-02-04T03:30:23.081Z,21.15
2023-02-04T03:32:49.985Z,20.70
2023-02-04T03:35:17.254Z,19.83
2023-02-04T03:37:44.148Z,15.45
2023-02-04T03:40:11.675Z,18.20
2023-02-04T03:42:38.458Z,19.80
2023-02-04T03:45:05.606Z,20.58
2023-02-04T03:47:32.553Z,18.67
2023-02-04T03:49:59.292Z,12.63
2023-02-04T03:52:26.023Z,20.67
2023-02-04T03:54:52.738Z,16.15
2023-02-04T03:57:19.474Z,18.60
2023-02-04T03:59:46.266Z,16.45
2023-02-04T04:02:13.045Z,14.35
2023-02-04T04:04:39.754Z,15.93
2023-02-04T04:07:07.087Z,16.95
2023-02-04T04:09:33.795Z,15.70
2023-02-04T04:12:00.957Z,12.05
2023-02-04T04:14:27.724Z,14.93
2023-02-04T04:16:56.740Z,13.48
2023-02-04T04:19:24.742Z,15.85
2023-02-04T04:21:51.451Z,13.63
2023-02-04T04:24:18.294Z,14.00
2023-02-04T04:26:45.146Z,12.73
2023-02-04T04:29:11.888Z,15.57
2023-02-04T04:31:38.839Z,13.23
2023-02-04T04:34:05.661Z,13.95
2023-02-04T04:36:32.386Z,17.13
2023-02-04T04:38:59.857Z,15.32
2023-02-04T04:41:26.594Z,13.63
2023-02-04T04:43:53.359Z,14.48
2023-02-04T04:46:21.496Z,15.93
2023-02-04T04:48:48.218Z,19.70
2023-02-04T04:51:14.924Z,18.33
2023-02-04T04:53:41.756Z,13.23
2023-02-04T04:56:08.539Z,15.43
2023-02-04T04:58:35.405Z,14.15
2023-02-04T05:01:03.557Z,16.60
2023-02-04T05:03:30.403Z,18.23
2023-02-04T05:05:57.147Z,13.00
2023-02-04T05:08:23.857Z,16.35
2023-02-04T05:10:50.665Z,14.48
2023-02-04T05:13:17.376Z,14.60
2023-02-04T05:15:44.054Z,13.95
2023-02-04T05:18:10.849Z,17.02
2023-02-04T05:20:37.560Z,14.10
2023-02-04T05:23:05.708Z,14.45
2023-02-04T05:25:33.010Z,15.93
2023-02-04T05:28:00.252Z,13.52
2023-02-04T05:30:27.157Z,13.80
2023-02-04T05:32:53.895Z,14.90
2023-02-04T05:35:20.704Z,13.95
2023-02-04T05:37:47.519Z,13.23
2023-02-04T05:40:17.013Z,13.75
2023-02-04T05:42:43.762Z,16.35
2023-02-04T05:45:15.203Z,13.75
2023-02-04T05:47:43.820Z,12.32
2023-02-04T05:50:11.083Z,14.55
2023-02-04T05:52:40.223Z,15.25
2023-02-04T05:55:07.607Z,15.60
2023-02-04T05:57:34.324Z,17.08
2023-02-04T06:00:01.018Z,15.02
2023-02-04T06:02:27.716Z,17.90
2023-02-04T06:04:54.532Z,15.00
2023-02-04T06:07:21.258Z,16.00
2023-02-04T06:09:47.988Z,15.05
2023-02-04T06:12:14.723Z,17.65
2023-02-04T06:14:41.418Z,12.65
2023-02-04T06:17:08.226Z,13.48
2023-02-04T06:19:34.896Z,11.13
2023-02-04T06:22:01.646Z,15.63
2023-02-04T06:24:28.367Z,14.05
2023-02-04T06:26:56.308Z,16.00
2023-02-04T06:29:24.175Z,12.95
2023-02-04T06:31:51.030Z,14.38
2023-02-04T06:34:17.827Z,15.93
2023-02-04T06:36:44.600Z,11.05
2023-02-04T06:39:11.349Z,11.15
2023-02-04T06:41:38.314Z,11.07
2023-02-04T06:44:05.133Z,11.68
2023-02-04T06:46:31.947Z,16.20
2023-02-04T06:48:58.714Z,13.00
2023-02-04T06:51:26.122Z,13.65
2023-02-04T06:53:53.136Z,12.02
2023-02-04T06:56:19.907Z,10.98
2023-02-04T06:58:46.628Z,12.93
2023-02-04T07:01:13.435Z,11.25
2023-02-04T07:03:40.374Z,13.80
2023-02-04T07:06:07.143Z,16.75
2023-02-04T07:08:33.945Z,16.35
2023-02-04T07:11:02.222Z,19.02
2023-02-04T07:13:28.972Z,15.40
2023-02-04T07:15:55.817Z,16.35
2023-02-04T07:18:22.652Z,15.25
2023-02-04T07:20:49.351Z,12.57
2023-02-04T07:23:16.245Z,17.63
2023-02-04T07:25:44.183Z,19.48
2023-02-04T07:28:11.052Z,18.80
2023-02-04T07:30:37.893Z,17.52
2023-02-04T07:33:04.788Z,20.45
2023-02-04T07:35:32.596Z,17.88
2023-02-04T07:37:59.288Z,15.98
2023-02-04T07:40:26.080Z,19.83
2023-02-04T07:42:52.812Z,20.17
2023-02-04T07:45:19.511Z,19.48
2023-02-04T07:47:46.318Z,19.13
2023-02-04T07:50:13.429Z,15.38
2023-02-04T07:52:40.254Z,17.65
2023-02-04T07:55:07.318Z,18.85
2023-02-04T07:57:34.434Z,16.80
2023-02-04T08:00:01.166Z,19.35
2023-02-04T08:02:28.063Z,18.17
2023-02-04T08:16:31.178Z,19.75
2023-02-04T08:44:11.450Z,18.85
2023-02-04T08:53:34.271Z,17.20
2023-02-04T08:56:07.760Z,17.50
2023-02-04T08:58:43.897Z,18.40
2023-02-04T09:01:43.503Z,24.70
2023-02-04T09:10:59.859Z,17.58
2023-02-04T09:13:46.438Z,22.37
2023-02-04T09:16:39.781Z,19.10
2023-02-04T09:38:38.872Z,12.18
2023-02-04T09:44:05.264Z,10.82
2023-02-04T09:58:59.735Z,14.88
2023-02-04T10:01:43.869Z,12.85
2023-02-04T10:10:00.120Z,12.40
2023-02-04T10:12:43.953Z,9.43
2023-02-04T10:15:39.286Z,7.57
2023-02-04T10:18:58.466Z,8.07
2023-02-04T10:25:03.186Z,8.93
2023-02-04T10:27:48.460Z,7.82
2023-02-04T10:31:03.744Z,11.40
2023-02-04T10:33:43.553Z,9.77
2023-02-04T10:36:27.221Z,10.82
2023-02-04T10:39:10.118Z,8.68
2023-02-04T10:41:56.444Z,8.00
2023-02-04T10:44:57.925Z,8.40
2023-02-04T10:50:48.480Z,14.80
2023-02-04T10:53:49.199Z,13.13
2023-02-04T10:56:23.265Z,11.32
2023-02-04T10:58:56.541Z,13.35
2023-02-04T11:01:28.266Z,13.65
2023-02-04T11:03:55.160Z,7.78
2023-02-04T11:06:24.142Z,12.93
2023-02-04T11:08:53.562Z,10.73
2023-02-04T11:11:26.286Z,8.48
2023-02-04T11:13:54.617Z,8.77
2023-02-04T11:16:46.335Z,12.20
2023-02-04T11:19:14.593Z,16.20
2023-02-04T11:21:45.586Z,20.23
2023-02-04T11:24:17.609Z,23.73
2023-02-04T11:26:53.108Z,14.48
2023-02-04T11:29:38.919Z,15.55
2023-02-04T11:32:29.937Z,10.32
2023-02-04T11:35:12.822Z,8.77
2023-02-04T11:37:42.291Z,13.20
2023-02-04T11:40:24.305Z,7.63
2023-02-04T11:42:57.477Z,7.30
2023-02-04T11:45:31.461Z,6.57
2023-02-04T11:48:01.614Z,8.73
2023-02-04T11:50:38.399Z,7.57
2023-02-04T11:53:05.997Z,5.45
2023-02-04T11:55:38.601Z,7.25
2023-02-04T11:58:07.427Z,7.75
2023-02-04T12:00:34.414Z,6.53
2023-02-04T12:03:07.949Z,11.27
2023-02-04T12:05:47.277Z,10.63
2023-02-04T12:08:43.072Z,9.90
2023-02-04T12:11:30.511Z,9.55
2023-02-04T12:14:06.761Z,7.03
2023-02-04T12:16:47.377Z,6.10
2023-02-04T12:19:14.685Z,11.32
2023-02-04T12:21:42.221Z,13.95
2023-02-04T12:24:08.999Z,13.98
2023-02-04T12:26:37.158Z,13.20
2023-02-04T12:29:05.546Z,12.02
2023-02-04T12:31:33.954Z,10.27
2023-02-04T12:34:00.877Z,9.23
2023-02-04T12:36:29.842Z,8.77
2023-02-04T12:38:58.861Z,9.18
2023-02-04T12:41:26.372Z,8.25
2023-02-04T12:43:54.986Z,7.88
2023-02-04T12:46:21.945Z,7.43
2023-02-04T12:48:48.968Z,6.63
2023-02-04T12:51:15.837Z,8.80
2023-02-04T12:53:42.754Z,13.38
2023-02-04T12:56:10.139Z,11.98
2023-02-04T12:58:37.033Z,10.20
2023-02-04T13:01:04.581Z,28.98
2023-02-04T13:03:32.222Z,10.13
2023-02-04T13:05:59.529Z,13.40
2023-02-04T13:08:26.884Z,15.52
2023-02-04T13:10:53.723Z,12.70
2023-02-04T13:13:21.670Z,25.75
2023-02-04T13:15:48.402Z,26.00
2023-02-04T13:18:17.366Z,25.02
2023-02-04T13:20:46.015Z,9.77
2023-02-04T13:23:13.685Z,11.05
2023-02-04T13:25:40.837Z,16.45
2023-02-04T13:28:07.707Z,17.88
2023-02-04T13:30:34.645Z,11.48
2023-02-04T13:33:02.481Z,9.60
2023-02-04T13:35:29.338Z,10.52
2023-02-04T13:37:56.615Z,11.10
2023-02-04T13:40:23.350Z,15.43
2023-02-04T13:42:50.365Z,17.25
2023-02-04T13:45:19.004Z,11.82
2023-02-04T13:47:47.942Z,11.60
2023-02-04T13:50:16.351Z,12.15
2023-02-04T13:52:43.312Z,16.15
2023-02-04T13:55:11.139Z,11.98
2023-02-04T13:57:38.042Z,10.45
2023-02-04T14:00:07.194Z,13.30
2023-02-04T14:02:34.330Z,10.45
2023-02-04T14:05:02.427Z,17.77
2023-02-04T14:07:30.686Z,12.05
2023-02-04T14:09:57.418Z,13.90
2023-02-04T14:12:24.278Z,11.82
2023-02-04T14:14:52.229Z,11.80
2023-02-04T14:17:18.901Z,14.32
2023-02-04T14:19:46.701Z,13.32
2023-02-04T14:22:16.203Z,13.90
2023-02-04T14:24:42.996Z,15.13
2023-02-04T14:27:11.022Z,17.63
2023-02-04T14:29:37.834Z,18.00
2023-02-04T14:32:05.174Z,24.08
2023-02-04T14:34:32.694Z,15.98
2023-02-04T14:41:26.228Z,13.45
2023-02-04T14:43:14.030Z,14.88
2023-02-04T14:45:41.349Z,20.88
2023-02-04T14:48:08.892Z,18.48
2023-02-04T14:50:41.037Z,17.35
2023-02-04T14:53:07.803Z,21.83
2023-02-04T14:55:34.684Z,19.70
2023-02-04T14:58:03.673Z,22.48
2023-02-04T15:00:32.148Z,21.08
2023-02-04T15:02:59.553Z,18.23
2023-02-04T15:05:26.328Z,23.58
2023-02-04T15:07:53.089Z,17.85
2023-02-04T15:10:20.022Z,18.15
2023-02-04T15:12:46.769Z,21.50
2023-02-04T15:15:13.547Z,17.63
2023-02-04T15:17:41.911Z,20.80
2023-02-04T15:20:11.986Z,16.30
2023-02-04T15:22:40.166Z,17.98
2023-02-04T15:26:08.378Z,18.08
2023-02-04T15:28:11.682Z,13.63
2023-02-04T15:30:39.080Z,12.75
2023-02-04T15:33:07.807Z,18.23
2023-02-04T15:35:37.998Z,15.93
2023-02-04T15:38:04.881Z,19.02
2023-02-04T15:40:32.074Z,13.68
2023-02-04T15:42:59.058Z,14.13
2023-02-04T15:45:30.886Z,16.00
2023-02-04T15:47:58.866Z,16.67
2023-02-04T15:50:25.792Z,13.02
2023-02-04T15:52:52.674Z,18.52
2023-02-04T15:55:19.515Z,20.40
2023-02-04T15:57:46.280Z,22.73
2023-02-04T16:00:13.788Z,18.48
2023-02-04T16:02:40.669Z,20.20
2023-02-04T16:05:07.779Z,20.63
2023-02-04T16:07:34.540Z,24.58
2023-02-04T16:10:01.405Z,19.17
2023-02-04T16:12:29.627Z,28.80
2023-02-04T16:14:56.369Z,22.52
2023-02-04T16:17:23.274Z,25.48
2023-02-04T16:19:50.045Z,22.65
2023-02-04T16:22:16.778Z,26.67
2023-02-04T16:24:46.385Z,24.30
2023-02-04T16:29:57.072Z,26.95
2023-02-04T16:32:26.683Z,21.10
2023-02-04T16:40:35.437Z,24.58
2023-02-04T17:36:21.656Z,33.45
2023-02-04T17:38:48.366Z,30.48
2023-02-04T17:41:15.082Z,28.35
2023-02-04T17:43:41.764Z,23.58
2023-02-04T17:46:08.441Z,21.77
2023-02-04T17:48:35.658Z,19.88
2023-02-04T17:51:02.410Z,23.90
2023-02-04T17:53:29.146Z,19.73
2023-02-04T17:55:55.817Z,18.17
2023-02-04T17:58:25.157Z,18.02
2023-02-04T18:00:53.653Z,20.83
2023-02-04T18:03:23.208Z,19.20
2023-02-04T18:05:52.424Z,19.73
2023-02-04T18:08:35.830Z,19.90
2023-02-04T18:11:02.614Z,16.10
2023-02-04T18:13:34.213Z,21.05
2023-02-04T18:16:27.646Z,22.58
2023-02-04T18:18:57.493Z,19.70
2023-02-04T18:21:28.375Z,19.08
2023-02-04T18:24:19.373Z,16.05
2023-02-04T18:26:51.712Z,16.65
2023-02-04T18:29:28.012Z,21.73
2023-02-04T18:31:57.694Z,18.08
2023-02-04T18:34:36.241Z,19.37
2023-02-04T18:37:36.204Z,18.65
2023-02-04T18:40:08.919Z,17.75
2023-02-04T18:42:43.674Z,20.02
2023-02-04T18:45:29.588Z,20.58
2023-02-04T18:47:58.497Z,20.42
2023-02-04T18:50:33.700Z,20.67
2023-02-04T18:53:16.447Z,19.00
2023-02-04T18:55:51.712Z,22.95
2023-02-04T18:58:18.373Z,19.45
2023-02-04T19:00:55.290Z,22.73
2023-02-04T19:03:32.039Z,20.13
2023-02-04T19:06:01.740Z,23.40
2023-02-04T19:08:44.269Z,21.80
2023-02-04T19:11:33.354Z,21.15
2023-02-04T19:14:00.639Z,22.63
2023-02-04T19:16:36.588Z,21.05
2023-02-04T19:19:33.773Z,25.35
2023-02-04T19:22:00.504Z,20.58
2023-02-04T19:24:29.265Z,21.63
2023-02-04T19:26:58.600Z,21.90
2023-02-04T19:29:45.553Z,19.10
2023-02-04T19:32:22.408Z,22.95
2023-02-04T19:34:49.380Z,21.52
2023-02-04T19:37:40.440Z,22.95
2023-02-04T19:40:30.589Z,24.25
2023-02-04T19:43:22.278Z,38.20
2023-02-04T19:45:50.982Z,35.47
2023-02-04T19:48:38.374Z,24.98
2023-02-04T19:51:26.848Z,22.98
2023-02-04T19:54:02.362Z,39.00
2023-02-04T19:56:32.665Z,30.55
2023-02-04T19:59:26.457Z,26.38
2023-02-04T20:02:05.539Z,25.83
2023-02-04T20:04:43.560Z,24.83
2023-02-04T20:07:33.075Z,26.48
2023-02-04T20:10:27.294Z,27.48
2023-02-04T20:13:06.643Z,21.10
2023-02-04T20:15:33.755Z,22.90
2023-02-04T20:18:03.136Z,20.45
2023-02-04T20:20:31.614Z,23.42
2023-02-04T20:23:02.367Z,23.27
2023-02-04T20:28:02.998Z,24.75
2023-02-04T20:30:31.167Z,21.98
2023-02-04T20:33:30.112Z,25.02
2023-02-04T20:36:40.186Z,23.88
2023-02-04T20:43:42.011Z,20.00
2023-02-04T20:48:43.851Z,23.40
2023-02-04T20:51:28.657Z,24.50
2023-02-04T20:54:02.531Z,22.83
2023-02-04T20:56:40.001Z,26.98
2023-02-04T20:59:40.113Z,20.90
2023-02-04T21:02:17.387Z,24.25
2023-02-04T21:04:51.897Z,24.20
2023-02-04T21:07:22.981Z,23.83
2023-02-04T21:09:51.707Z,27.42
2023-02-04T21:12:27.030Z,32.85
2023-02-04T21:15:25.132Z,27.80
2023-02-04T21:18:04.473Z,26.95
2023-02-04T21:20:58.409Z,35.13
2023-02-04T21:23:26.722Z,27.48
2023-02-04T21:26:20.710Z,24.58
2023-02-04T21:31:38.726Z,21.42
2023-02-04T21:34:26.015Z,29.27
2023-02-04T21:37:22.728Z,23.17
2023-02-04T21:40:17.067Z,21.20
2023-02-04T21:43:09.419Z,28.30
2023-02-04T21:45:54.462Z,24.77
2023-02-04T21:48:27.697Z,24.20
2023-02-04T21:51:05.968Z,22.35
2023-02-04T21:53:52.422Z,25.85
2023-02-04T21:56:30.456Z,24.30
2023-02-04T21:59:06.703Z,29.50
2023-02-04T22:04:53.343Z,20.88
2023-02-04T22:07:47.964Z,25.50
2023-02-04T22:10:20.404Z,25.48
2023-02-04T22:12:51.334Z,23.48
2023-02-04T22:15:31.665Z,26.15
2023-02-04T22:18:21.434Z,26.35
2023-02-04T22:21:13.450Z,25.67
2023-02-04T22:27:51.372Z,26.73
2023-02-04T22:30:15.983Z,25.95
2023-02-04T22:33:21.497Z,29.38
2023-02-04T22:39:39.487Z,25.20
2023-02-04T22:42:27.021Z,28.67
2023-02-04T22:45:05.726Z,27.17
2023-02-04T22:47:45.651Z,25.33
2023-02-04T22:50:39.671Z,27.52
2023-02-04T22:53:50.197Z,30.52
2023-02-04T22:56:28.100Z,25.00
2023-02-04T22:59:07.440Z,25.48
2023-02-04T23:05:12.701Z,26.27
2023-02-04T23:07:45.014Z,23.35
2023-02-04T23:10:26.295Z,25.88
2023-02-04T23:13:47.745Z,23.52
2023-02-04T23:16:34.229Z,25.10
2023-02-04T23:19:59.600Z,24.95
2023-02-04T23:26:33.143Z,25.73
2023-02-04T23:32:01.469Z,25.20
2023-02-04T23:34:28.577Z,26.08
2023-02-04T23:36:58.206Z,24.92
2023-02-04T23:39:25.518Z,25.23
2023-02-04T23:41:53.060Z,28.10
2023-02-04T23:44:20.189Z,26.95
2023-02-04T23:46:49.821Z,24.73
2023-02-04T23:49:19.847Z,24.77
2023-02-04T23:51:47.483Z,23.83
2023-02-04T23:54:22.769Z,21.17
2023-02-04T23:59:53.395Z,24.67
